sensor_id;sensor_type;location;lat;lon;timestamp;temperature;humidity
68387;DHT22;55338;43.062;25.624;2023-02-28T00:01:19;8.50;99.90
68387;DHT22;55338;43.062;25.624;2023-02-28T00:03:45;8.50;99.90
68387;DHT22;55338;43.062;25.624;2023-02-28T00:06:11;8.50;99.90
68387;DHT22;55338;43.062;25.624;2023-02-28T00:08:37;8.60;99.90
68387;DHT22;55338;43.062;25.624;2023-02-28T00:11:05;8.60;99.90
68387;DHT22;55338;43.062;25.624;2023-02-28T00:13:40;8.60;99.90
68387;DHT22;55338;43.062;25.624;2023-02-28T00:16:12;8.60;99.90
68387;DHT22;55338;43.062;25.624;2023-02-28T00:18:39;8.60;99.90
68387;DHT22;55338;43.062;25.624;2023-02-28T00:21:05;8.60;99.90
68387;DHT22;55338;43.062;25.624;2023-02-28T00:23:31;8.60;99.90
68387;DHT22;55338;43.062;25.624;2023-02-28T00:25:57;8.60;99.90
68387;DHT22;55338;43.062;25.624;2023-02-28T00:28:23;8.60;99.90
68387;DHT22;55338;43.062;25.624;2023-02-28T00:30:49;8.60;99.90
68387;DHT22;55338;43.062;25.624;2023-02-28T00:33:15;8.60;99.90
68387;DHT22;55338;43.062;25.624;2023-02-28T00:35:41;8.70;99.90
68387;DHT22;55338;43.062;25.624;2023-02-28T00:38:07;8.60;99.90
68387;DHT22;55338;43.062;25.624;2023-02-28T00:40:33;8.60;99.90
68387;DHT22;55338;43.062;25.624;2023-02-28T00:42:59;8.60;99.90
68387;DHT22;55338;43.062;25.624;2023-02-28T00:45:27;8.60;99.90
68387;DHT22;55338;43.062;25.624;2023-02-28T00:47:52;8.60;99.90
68387;DHT22;55338;43.062;25.624;2023-02-28T00:50:20;8.60;99.90
68387;DHT22;55338;43.062;25.624;2023-02-28T00:52:46;8.70;99.90
68387;DHT22;55338;43.062;25.624;2023-02-28T00:55:13;8.70;99.90
68387;DHT22;55338;43.062;25.624;2023-02-28T00:57:38;8.70;99.90
68387;DHT22;55338;43.062;25.624;2023-02-28T01:00:06;8.70;99.90
68387;DHT22;55338;43.062;25.624;2023-02-28T01:02:32;8.70;99.90
68387;DHT22;55338;43.062;25.624;2023-02-28T01:04:57;8.70;99.90
68387;DHT22;55338;43.062;25.624;2023-02-28T01:07:23;8.70;99.90
68387;DHT22;55338;43.062;25.624;2023-02-28T01:09:49;8.70;99.90
68387;DHT22;55338;43.062;25.624;2023-02-28T01:12:15;8.70;99.90
68387;DHT22;55338;43.062;25.624;2023-02-28T01:14:41;8.70;99.90
68387;DHT22;55338;43.062;25.624;2023-02-28T01:17:08;8.70;99.90
68387;DHT22;55338;43.062;25.624;2023-02-28T01:19:34;8.60;99.90
68387;DHT22;55338;43.062;25.624;2023-02-28T01:22:02;8.70;99.90
68387;DHT22;55338;43.062;25.624;2023-02-28T01:24:28;8.70;99.90
68387;DHT22;55338;43.062;25.624;2023-02-28T01:26:54;8.70;99.90
68387;DHT22;55338;43.062;25.624;2023-02-28T01:29:19;8.70;99.90
68387;DHT22;55338;43.062;25.624;2023-02-28T01:31:45;8.60;99.90
68387;DHT22;55338;43.062;25.624;2023-02-28T01:34:11;8.60;99.90
68387;DHT22;55338;43.062;25.624;2023-02-28T01:36:36;8.50;99.90
68387;DHT22;55338;43.062;25.624;2023-02-28T01:39:02;8.50;99.90
68387;DHT22;55338;43.062;25.624;2023-02-28T01:41:31;8.60;99.90
68387;DHT22;55338;43.062;25.624;2023-02-28T01:44:01;8.50;99.90
68387;DHT22;55338;43.062;25.624;2023-02-28T01:46:32;8.50;99.90
68387;DHT22;55338;43.062;25.624;2023-02-28T01:49:00;8.40;99.90
68387;DHT22;55338;43.062;25.624;2023-02-28T01:51:51;8.50;99.90
68387;DHT22;55338;43.062;25.624;2023-02-28T01:54:31;8.50;99.90
68387;DHT22;55338;43.062;25.624;2023-02-28T01:57:13;8.50;99.90
68387;DHT22;55338;43.062;25.624;2023-02-28T02:00:03;8.60;99.90
68387;DHT22;55338;43.062;25.624;2023-02-28T02:02:30;8.60;99.90
68387;DHT22;55338;43.062;25.624;2023-02-28T02:05:10;8.60;99.90
68387;DHT22;55338;43.062;25.624;2023-02-28T02:07:38;8.60;99.90
68387;DHT22;55338;43.062;25.624;2023-02-28T02:15:47;8.60;99.90
68387;DHT22;55338;43.062;25.624;2023-02-28T02:23:58;8.60;99.90
68387;DHT22;55338;43.062;25.624;2023-02-28T02:34:28;8.60;99.90
68387;DHT22;55338;43.062;25.624;2023-02-28T02:39:59;8.60;99.90
68387;DHT22;55338;43.062;25.624;2023-02-28T02:42:36;8.60;99.90
68387;DHT22;55338;43.062;25.624;2023-02-28T02:45:11;8.60;99.90
68387;DHT22;55338;43.062;25.624;2023-02-28T02:47:39;8.60;99.90
68387;DHT22;55338;43.062;25.624;2023-02-28T02:50:08;8.60;99.90
68387;DHT22;55338;43.062;25.624;2023-02-28T02:52:43;8.70;99.90
68387;DHT22;55338;43.062;25.624;2023-02-28T02:55:11;8.70;99.90
68387;DHT22;55338;43.062;25.624;2023-02-28T02:57:54;8.70;99.90
68387;DHT22;55338;43.062;25.624;2023-02-28T03:00:26;8.70;99.90
68387;DHT22;55338;43.062;25.624;2023-02-28T03:02:56;8.70;99.90
68387;DHT22;55338;43.062;25.624;2023-02-28T03:05:35;8.70;99.90
68387;DHT22;55338;43.062;25.624;2023-02-28T03:08:05;8.60;99.90
68387;DHT22;55338;43.062;25.624;2023-02-28T03:10:35;8.60;99.90
68387;DHT22;55338;43.062;25.624;2023-02-28T03:13:16;8.60;99.90
68387;DHT22;55338;43.062;25.624;2023-02-28T03:16:28;8.60;99.90
68387;DHT22;55338;43.062;25.624;2023-02-28T03:19:30;8.60;99.90
68387;DHT22;55338;43.062;25.624;2023-02-28T03:30:04;8.40;99.90
68387;DHT22;55338;43.062;25.624;2023-02-28T03:35:12;8.30;99.90
68387;DHT22;55338;43.062;25.624;2023-02-28T03:37:42;8.30;99.90
68387;DHT22;55338;43.062;25.624;2023-02-28T03:40:15;8.30;99.90
68387;DHT22;55338;43.062;25.624;2023-02-28T03:42:46;8.30;99.90
68387;DHT22;55338;43.062;25.624;2023-02-28T03:45:19;8.30;99.90
68387;DHT22;55338;43.062;25.624;2023-02-28T03:47:52;8.30;99.90
68387;DHT22;55338;43.062;25.624;2023-02-28T03:50:23;8.30;99.90
68387;DHT22;55338;43.062;25.624;2023-02-28T03:55:54;8.20;99.90
68387;DHT22;55338;43.062;25.624;2023-02-28T03:58:33;8.20;99.90
68387;DHT22;55338;43.062;25.624;2023-02-28T04:01:33;8.20;99.90
68387;DHT22;55338;43.062;25.624;2023-02-28T04:04:02;8.20;99.90
68387;DHT22;55338;43.062;25.624;2023-02-28T04:06:31;8.20;99.90
68387;DHT22;55338;43.062;25.624;2023-02-28T04:08:57;8.30;99.90
68387;DHT22;55338;43.062;25.624;2023-02-28T04:11:34;8.20;99.90
68387;DHT22;55338;43.062;25.624;2023-02-28T04:14:02;8.20;99.90
68387;DHT22;55338;43.062;25.624;2023-02-28T04:16:29;8.20;99.90
68387;DHT22;55338;43.062;25.624;2023-02-28T04:18:55;8.20;99.90
68387;DHT22;55338;43.062;25.624;2023-02-28T04:21:31;8.20;99.90
68387;DHT22;55338;43.062;25.624;2023-02-28T04:23:57;8.20;99.90
68387;DHT22;55338;43.062;25.624;2023-02-28T04:26:30;8.20;99.90
68387;DHT22;55338;43.062;25.624;2023-02-28T04:28:57;8.20;99.90
68387;DHT22;55338;43.062;25.624;2023-02-28T04:31:23;8.30;99.90
68387;DHT22;55338;43.062;25.624;2023-02-28T04:33:49;8.30;99.90
68387;DHT22;55338;43.062;25.624;2023-02-28T04:36:15;8.30;99.90
68387;DHT22;55338;43.062;25.624;2023-02-28T04:38:44;8.30;99.90
68387;DHT22;55338;43.062;25.624;2023-02-28T04:41:11;8.30;99.90
68387;DHT22;55338;43.062;25.624;2023-02-28T04:43:37;8.30;99.90
68387;DHT22;55338;43.062;25.624;2023-02-28T04:46:04;8.30;99.90
68387;DHT22;55338;43.062;25.624;2023-02-28T04:48:33;8.30;99.90
68387;DHT22;55338;43.062;25.624;2023-02-28T04:51:01;8.30;99.90
68387;DHT22;55338;43.062;25.624;2023-02-28T04:53:28;8.30;99.90
68387;DHT22;55338;43.062;25.624;2023-02-28T04:55:55;8.30;99.90
68387;DHT22;55338;43.062;25.624;2023-02-28T04:58:22;8.30;99.90
68387;DHT22;55338;43.062;25.624;2023-02-28T05:00:53;8.30;99.90
68387;DHT22;55338;43.062;25.624;2023-02-28T05:03:19;8.40;99.90
68387;DHT22;55338;43.062;25.624;2023-02-28T05:05:46;8.30;99.90
68387;DHT22;55338;43.062;25.624;2023-02-28T05:08:12;8.30;99.90
68387;DHT22;55338;43.062;25.624;2023-02-28T05:10:38;8.30;99.90
68387;DHT22;55338;43.062;25.624;2023-02-28T05:13:04;8.20;99.90
68387;DHT22;55338;43.062;25.624;2023-02-28T05:15:30;8.20;99.90
68387;DHT22;55338;43.062;25.624;2023-02-28T05:17:55;8.20;99.90
68387;DHT22;55338;43.062;25.624;2023-02-28T05:20:21;8.30;99.90
68387;DHT22;55338;43.062;25.624;2023-02-28T05:22:47;8.30;99.90
68387;DHT22;55338;43.062;25.624;2023-02-28T05:25:19;8.30;99.90
68387;DHT22;55338;43.062;25.624;2023-02-28T05:27:45;8.30;99.90
68387;DHT22;55338;43.062;25.624;2023-02-28T05:30:12;8.30;99.90
68387;DHT22;55338;43.062;25.624;2023-02-28T05:32:39;8.30;99.90
68387;DHT22;55338;43.062;25.624;2023-02-28T05:35:08;8.40;99.90
68387;DHT22;55338;43.062;25.624;2023-02-28T05:37:34;8.30;99.90
68387;DHT22;55338;43.062;25.624;2023-02-28T05:40:01;8.40;99.90
68387;DHT22;55338;43.062;25.624;2023-02-28T05:42:26;8.40;99.90
68387;DHT22;55338;43.062;25.624;2023-02-28T05:44:52;8.50;99.90
68387;DHT22;55338;43.062;25.624;2023-02-28T05:47:18;8.50;99.90
68387;DHT22;55338;43.062;25.624;2023-02-28T05:49:43;8.50;99.90
68387;DHT22;55338;43.062;25.624;2023-02-28T05:52:09;8.50;99.90
68387;DHT22;55338;43.062;25.624;2023-02-28T05:54:36;8.60;99.90
68387;DHT22;55338;43.062;25.624;2023-02-28T05:57:02;8.60;99.90
68387;DHT22;55338;43.062;25.624;2023-02-28T05:59:28;8.60;99.90
68387;DHT22;55338;43.062;25.624;2023-02-28T06:02:26;8.60;99.90
68387;DHT22;55338;43.062;25.624;2023-02-28T06:05:04;8.70;99.90
68387;DHT22;55338;43.062;25.624;2023-02-28T06:07:30;8.70;99.90
68387;DHT22;55338;43.062;25.624;2023-02-28T06:09:56;8.70;99.90
68387;DHT22;55338;43.062;25.624;2023-02-28T06:12:22;8.70;99.90
68387;DHT22;55338;43.062;25.624;2023-02-28T06:14:49;8.70;99.90
68387;DHT22;55338;43.062;25.624;2023-02-28T06:17:15;8.80;99.90
68387;DHT22;55338;43.062;25.624;2023-02-28T06:19:43;8.80;99.90
68387;DHT22;55338;43.062;25.624;2023-02-28T06:22:09;8.90;99.90
68387;DHT22;55338;43.062;25.624;2023-02-28T06:24:35;8.90;99.90
68387;DHT22;55338;43.062;25.624;2023-02-28T06:27:01;8.80;99.90
68387;DHT22;55338;43.062;25.624;2023-02-28T06:29:32;8.70;99.90
68387;DHT22;55338;43.062;25.624;2023-02-28T06:32:00;8.70;99.90
68387;DHT22;55338;43.062;25.624;2023-02-28T06:34:26;8.70;99.90
68387;DHT22;55338;43.062;25.624;2023-02-28T06:36:52;8.70;99.90
68387;DHT22;55338;43.062;25.624;2023-02-28T06:39:18;8.90;99.90
68387;DHT22;55338;43.062;25.624;2023-02-28T06:41:44;8.90;99.90
68387;DHT22;55338;43.062;25.624;2023-02-28T06:44:15;9.00;99.90
68387;DHT22;55338;43.062;25.624;2023-02-28T06:46:42;9.00;99.90
68387;DHT22;55338;43.062;25.624;2023-02-28T06:49:09;9.10;99.90
68387;DHT22;55338;43.062;25.624;2023-02-28T06:51:37;9.10;99.90
68387;DHT22;55338;43.062;25.624;2023-02-28T06:54:04;9.10;99.90
68387;DHT22;55338;43.062;25.624;2023-02-28T06:56:31;9.20;99.90
68387;DHT22;55338;43.062;25.624;2023-02-28T06:58:56;9.20;99.90
68387;DHT22;55338;43.062;25.624;2023-02-28T07:01:22;9.30;99.90
68387;DHT22;55338;43.062;25.624;2023-02-28T07:03:49;9.30;99.90
68387;DHT22;55338;43.062;25.624;2023-02-28T07:06:19;9.30;99.90
68387;DHT22;55338;43.062;25.624;2023-02-28T07:08:45;9.40;99.90
68387;DHT22;55338;43.062;25.624;2023-02-28T07:11:11;9.50;99.90
68387;DHT22;55338;43.062;25.624;2023-02-28T07:13:38;9.60;99.90
68387;DHT22;55338;43.062;25.624;2023-02-28T07:16:07;9.60;99.90
68387;DHT22;55338;43.062;25.624;2023-02-28T07:18:35;9.60;99.90
68387;DHT22;55338;43.062;25.624;2023-02-28T07:21:04;9.70;99.90
68387;DHT22;55338;43.062;25.624;2023-02-28T07:23:31;9.80;99.90
68387;DHT22;55338;43.062;25.624;2023-02-28T07:25:57;9.90;99.90
68387;DHT22;55338;43.062;25.624;2023-02-28T07:28:23;10.00;99.90
68387;DHT22;55338;43.062;25.624;2023-02-28T07:30:48;10.00;99.90
68387;DHT22;55338;43.062;25.624;2023-02-28T07:33:15;10.00;99.90
68387;DHT22;55338;43.062;25.624;2023-02-28T07:35:45;10.00;99.90
68387;DHT22;55338;43.062;25.624;2023-02-28T07:38:11;10.10;99.90
68387;DHT22;55338;43.062;25.624;2023-02-28T07:40:39;10.10;99.90
68387;DHT22;55338;43.062;25.624;2023-02-28T07:43:05;10.10;99.90
68387;DHT22;55338;43.062;25.624;2023-02-28T07:45:34;10.10;99.90
68387;DHT22;55338;43.062;25.624;2023-02-28T07:48:00;10.10;99.90
68387;DHT22;55338;43.062;25.624;2023-02-28T07:50:26;10.10;99.90
68387;DHT22;55338;43.062;25.624;2023-02-28T07:52:57;10.10;99.90
68387;DHT22;55338;43.062;25.624;2023-02-28T07:55:23;10.10;99.90
68387;DHT22;55338;43.062;25.624;2023-02-28T07:57:49;10.10;99.90
68387;DHT22;55338;43.062;25.624;2023-02-28T08:00:15;10.00;99.90
68387;DHT22;55338;43.062;25.624;2023-02-28T08:02:44;10.10;99.90
68387;DHT22;55338;43.062;25.624;2023-02-28T08:05:10;10.30;99.90
68387;DHT22;55338;43.062;25.624;2023-02-28T08:07:38;10.20;99.90
68387;DHT22;55338;43.062;25.624;2023-02-28T08:10:05;10.10;99.90
68387;DHT22;55338;43.062;25.624;2023-02-28T08:12:31;10.10;99.90
68387;DHT22;55338;43.062;25.624;2023-02-28T08:14:56;10.10;99.90
68387;DHT22;55338;43.062;25.624;2023-02-28T08:17:22;10.10;99.90
68387;DHT22;55338;43.062;25.624;2023-02-28T08:19:48;10.10;99.90
68387;DHT22;55338;43.062;25.624;2023-02-28T08:22:14;10.10;99.90
68387;DHT22;55338;43.062;25.624;2023-02-28T08:24:41;10.10;99.90
68387;DHT22;55338;43.062;25.624;2023-02-28T08:27:08;10.10;99.90
68387;DHT22;55338;43.062;25.624;2023-02-28T08:29:34;10.10;99.90
68387;DHT22;55338;43.062;25.624;2023-02-28T08:32:02;10.10;99.90
68387;DHT22;55338;43.062;25.624;2023-02-28T08:34:28;10.00;99.90
68387;DHT22;55338;43.062;25.624;2023-02-28T08:36:57;10.00;99.90
68387;DHT22;55338;43.062;25.624;2023-02-28T08:39:23;10.00;99.90
68387;DHT22;55338;43.062;25.624;2023-02-28T08:41:49;10.10;99.90
68387;DHT22;55338;43.062;25.624;2023-02-28T08:44:15;10.20;99.90
68387;DHT22;55338;43.062;25.624;2023-02-28T08:46:41;10.30;99.90
68387;DHT22;55338;43.062;25.624;2023-02-28T08:49:06;10.40;99.90
68387;DHT22;55338;43.062;25.624;2023-02-28T08:51:32;10.50;99.90
68387;DHT22;55338;43.062;25.624;2023-02-28T08:54:00;10.40;99.90
68387;DHT22;55338;43.062;25.624;2023-02-28T08:56:27;10.50;99.90
68387;DHT22;55338;43.062;25.624;2023-02-28T08:58:55;10.60;99.90
68387;DHT22;55338;43.062;25.624;2023-02-28T09:01:26;10.60;99.90
68387;DHT22;55338;43.062;25.624;2023-02-28T09:03:56;10.70;99.90
68387;DHT22;55338;43.062;25.624;2023-02-28T09:06:25;10.80;99.90
68387;DHT22;55338;43.062;25.624;2023-02-28T09:08:56;10.90;99.90
68387;DHT22;55338;43.062;25.624;2023-02-28T09:11:24;10.90;99.90
68387;DHT22;55338;43.062;25.624;2023-02-28T09:13:50;10.70;99.90
68387;DHT22;55338;43.062;25.624;2023-02-28T09:16:17;10.70;99.90
68387;DHT22;55338;43.062;25.624;2023-02-28T09:18:44;10.80;99.90
68387;DHT22;55338;43.062;25.624;2023-02-28T09:21:12;10.80;99.90
68387;DHT22;55338;43.062;25.624;2023-02-28T09:23:44;10.90;99.90
68387;DHT22;55338;43.062;25.624;2023-02-28T09:26:15;10.90;99.90
68387;DHT22;55338;43.062;25.624;2023-02-28T09:28:45;10.90;99.90
68387;DHT22;55338;43.062;25.624;2023-02-28T09:31:17;10.90;99.90
68387;DHT22;55338;43.062;25.624;2023-02-28T09:33:49;11.00;99.90
68387;DHT22;55338;43.062;25.624;2023-02-28T09:36:16;11.00;99.90
68387;DHT22;55338;43.062;25.624;2023-02-28T09:38:42;11.10;99.90
68387;DHT22;55338;43.062;25.624;2023-02-28T09:41:36;11.10;99.90
68387;DHT22;55338;43.062;25.624;2023-02-28T09:44:04;11.10;99.90
68387;DHT22;55338;43.062;25.624;2023-02-28T09:46:32;11.10;99.90
68387;DHT22;55338;43.062;25.624;2023-02-28T09:49:02;11.10;99.90
68387;DHT22;55338;43.062;25.624;2023-02-28T09:54:21;11.00;99.90
68387;DHT22;55338;43.062;25.624;2023-02-28T09:56:56;11.00;99.90
68387;DHT22;55338;43.062;25.624;2023-02-28T10:04:59;11.10;99.90
68387;DHT22;55338;43.062;25.624;2023-02-28T10:09:58;11.00;99.90
68387;DHT22;55338;43.062;25.624;2023-02-28T10:12:26;11.00;99.90
68387;DHT22;55338;43.062;25.624;2023-02-28T10:14:54;11.00;99.90
68387;DHT22;55338;43.062;25.624;2023-02-28T10:17:26;11.00;99.90
68387;DHT22;55338;43.062;25.624;2023-02-28T10:20:06;11.00;99.90
68387;DHT22;55338;43.062;25.624;2023-02-28T10:25:19;11.00;99.90
68387;DHT22;55338;43.062;25.624;2023-02-28T10:27:45;11.00;99.90
68387;DHT22;55338;43.062;25.624;2023-02-28T10:30:11;11.00;99.90
68387;DHT22;55338;43.062;25.624;2023-02-28T10:32:40;11.00;99.90
68387;DHT22;55338;43.062;25.624;2023-02-28T10:37:47;10.80;99.90
68387;DHT22;55338;43.062;25.624;2023-02-28T10:43:05;10.90;99.90
68387;DHT22;55338;43.062;25.624;2023-02-28T10:45:36;11.10;99.90
68387;DHT22;55338;43.062;25.624;2023-02-28T10:48:26;11.10;99.90
68387;DHT22;55338;43.062;25.624;2023-02-28T10:50:56;11.20;99.90
68387;DHT22;55338;43.062;25.624;2023-02-28T10:56:05;11.20;99.90
68387;DHT22;55338;43.062;25.624;2023-02-28T10:58:54;11.20;99.90
68387;DHT22;55338;43.062;25.624;2023-02-28T11:01:27;11.30;99.90
68387;DHT22;55338;43.062;25.624;2023-02-28T11:04:00;11.30;99.90
68387;DHT22;55338;43.062;25.624;2023-02-28T11:06:31;11.30;99.90
68387;DHT22;55338;43.062;25.624;2023-02-28T11:09:14;11.30;99.90
68387;DHT22;55338;43.062;25.624;2023-02-28T11:11:45;11.70;99.90
68387;DHT22;55338;43.062;25.624;2023-02-28T11:14:27;11.30;99.90
68387;DHT22;55338;43.062;25.624;2023-02-28T11:16:53;11.30;99.90
68387;DHT22;55338;43.062;25.624;2023-02-28T11:19:34;11.30;99.90
68387;DHT22;55338;43.062;25.624;2023-02-28T11:22:05;11.40;99.90
68387;DHT22;55338;43.062;25.624;2023-02-28T11:24:37;11.50;99.90
68387;DHT22;55338;43.062;25.624;2023-02-28T11:29:56;11.40;99.90
68387;DHT22;55338;43.062;25.624;2023-02-28T11:32:26;11.30;99.90
68387;DHT22;55338;43.062;25.624;2023-02-28T11:37:35;11.20;99.90
68387;DHT22;55338;43.062;25.624;2023-02-28T11:40:04;11.20;99.90
68387;DHT22;55338;43.062;25.624;2023-02-28T11:48:22;11.10;99.90
68387;DHT22;55338;43.062;25.624;2023-02-28T11:50:57;11.10;99.90
68387;DHT22;55338;43.062;25.624;2023-02-28T11:56:55;11.10;99.90
68387;DHT22;55338;43.062;25.624;2023-02-28T12:11:10;10.70;99.90
68387;DHT22;55338;43.062;25.624;2023-02-28T12:13:51;10.70;99.90
68387;DHT22;55338;43.062;25.624;2023-02-28T12:19:17;10.60;99.90
68387;DHT22;55338;43.062;25.624;2023-02-28T12:27:05;10.40;99.90
68387;DHT22;55338;43.062;25.624;2023-02-28T12:29:49;10.30;99.90
68387;DHT22;55338;43.062;25.624;2023-02-28T12:32:22;10.30;99.90
68387;DHT22;55338;43.062;25.624;2023-02-28T12:41:00;10.20;99.90
68387;DHT22;55338;43.062;25.624;2023-02-28T12:43:35;10.20;99.90
68387;DHT22;55338;43.062;25.624;2023-02-28T12:46:17;10.00;99.90
68387;DHT22;55338;43.062;25.624;2023-02-28T12:48:50;10.00;99.90
68387;DHT22;55338;43.062;25.624;2023-02-28T12:51:18;9.80;99.90
68387;DHT22;55338;43.062;25.624;2023-02-28T12:57:08;9.60;99.90
68387;DHT22;55338;43.062;25.624;2023-02-28T13:09:58;9.40;99.90
68387;DHT22;55338;43.062;25.624;2023-02-28T13:12:25;9.40;99.90
68387;DHT22;55338;43.062;25.624;2023-02-28T13:17:30;9.30;99.90
68387;DHT22;55338;43.062;25.624;2023-02-28T13:19:58;9.30;99.90
68387;DHT22;55338;43.062;25.624;2023-02-28T13:24:56;9.10;99.90
68387;DHT22;55338;43.062;25.624;2023-02-28T13:29:51;9.00;99.90
68387;DHT22;55338;43.062;25.624;2023-02-28T13:32:30;8.90;99.90
68387;DHT22;55338;43.062;25.624;2023-02-28T13:39:56;8.80;99.90
68387;DHT22;55338;43.062;25.624;2023-02-28T13:42:23;8.80;99.90
68387;DHT22;55338;43.062;25.624;2023-02-28T13:50:28;8.50;99.90
68387;DHT22;55338;43.062;25.624;2023-02-28T13:56:47;8.50;99.90
68387;DHT22;55338;43.062;25.624;2023-02-28T13:58:56;8.50;99.90
68387;DHT22;55338;43.062;25.624;2023-02-28T14:04:49;8.50;99.90
68387;DHT22;55338;43.062;25.624;2023-02-28T14:07:29;8.40;99.90
68387;DHT22;55338;43.062;25.624;2023-02-28T14:10:07;8.50;99.90
68387;DHT22;55338;43.062;25.624;2023-02-28T14:15:38;8.50;99.90
68387;DHT22;55338;43.062;25.624;2023-02-28T14:18:32;8.50;99.90
68387;DHT22;55338;43.062;25.624;2023-02-28T14:21:21;8.40;99.90
68387;DHT22;55338;43.062;25.624;2023-02-28T14:37:42;8.30;99.90
68387;DHT22;55338;43.062;25.624;2023-02-28T14:40:17;8.30;99.90
68387;DHT22;55338;43.062;25.624;2023-02-28T14:42:57;8.20;99.90
68387;DHT22;55338;43.062;25.624;2023-02-28T14:45:29;8.10;99.90
68387;DHT22;55338;43.062;25.624;2023-02-28T14:47:57;8.20;99.90
68387;DHT22;55338;43.062;25.624;2023-02-28T14:50:31;8.20;99.90
68387;DHT22;55338;43.062;25.624;2023-02-28T14:52:57;8.10;99.90
68387;DHT22;55338;43.062;25.624;2023-02-28T14:55:30;8.10;99.90
68387;DHT22;55338;43.062;25.624;2023-02-28T14:58:02;8.00;99.90
68387;DHT22;55338;43.062;25.624;2023-02-28T15:00:31;8.00;99.90
68387;DHT22;55338;43.062;25.624;2023-02-28T15:03:00;8.10;99.90
68387;DHT22;55338;43.062;25.624;2023-02-28T15:05:31;8.00;99.90
68387;DHT22;55338;43.062;25.624;2023-02-28T15:10:31;8.00;99.90
68387;DHT22;55338;43.062;25.624;2023-02-28T15:20:47;7.90;99.90
68387;DHT22;55338;43.062;25.624;2023-02-28T15:23:14;7.90;99.90
68387;DHT22;55338;43.062;25.624;2023-02-28T15:25:41;7.90;99.90
68387;DHT22;55338;43.062;25.624;2023-02-28T15:28:14;7.80;99.90
68387;DHT22;55338;43.062;25.624;2023-02-28T15:30:54;7.80;99.90
68387;DHT22;55338;43.062;25.624;2023-02-28T15:33:24;7.70;99.90
68387;DHT22;55338;43.062;25.624;2023-02-28T15:35:50;7.70;99.90
68387;DHT22;55338;43.062;25.624;2023-02-28T15:38:24;7.60;99.90
68387;DHT22;55338;43.062;25.624;2023-02-28T15:40:54;7.60;99.90
68387;DHT22;55338;43.062;25.624;2023-02-28T15:43:34;7.60;99.90
68387;DHT22;55338;43.062;25.624;2023-02-28T15:48:42;7.60;99.90
68387;DHT22;55338;43.062;25.624;2023-02-28T15:51:23;7.60;99.90
68387;DHT22;55338;43.062;25.624;2023-02-28T15:53:54;7.60;99.90
68387;DHT22;55338;43.062;25.624;2023-02-28T15:56:31;7.60;99.90
68387;DHT22;55338;43.062;25.624;2023-02-28T15:59:07;7.50;99.90
68387;DHT22;55338;43.062;25.624;2023-02-28T16:01:39;7.50;99.90
68387;DHT22;55338;43.062;25.624;2023-02-28T16:04:13;7.60;99.90
68387;DHT22;55338;43.062;25.624;2023-02-28T16:06:43;7.60;99.90
68387;DHT22;55338;43.062;25.624;2023-02-28T16:09:12;7.60;99.90
68387;DHT22;55338;43.062;25.624;2023-02-28T16:11:48;7.60;99.90
68387;DHT22;55338;43.062;25.624;2023-02-28T16:14:23;7.50;99.90
68387;DHT22;55338;43.062;25.624;2023-02-28T16:16:52;7.50;99.90
68387;DHT22;55338;43.062;25.624;2023-02-28T16:19:19;7.60;99.90
68387;DHT22;55338;43.062;25.624;2023-02-28T16:21:45;7.50;99.90
68387;DHT22;55338;43.062;25.624;2023-02-28T16:24:11;7.50;99.90
68387;DHT22;55338;43.062;25.624;2023-02-28T16:26:42;7.40;99.90
68387;DHT22;55338;43.062;25.624;2023-02-28T16:29:18;7.40;99.90
68387;DHT22;55338;43.062;25.624;2023-02-28T16:31:45;7.40;99.90
68387;DHT22;55338;43.062;25.624;2023-02-28T16:34:10;7.40;99.90
68387;DHT22;55338;43.062;25.624;2023-02-28T16:36:36;7.40;99.90
68387;DHT22;55338;43.062;25.624;2023-02-28T16:39:02;7.40;99.90
68387;DHT22;55338;43.062;25.624;2023-02-28T16:41:28;7.40;99.90
68387;DHT22;55338;43.062;25.624;2023-02-28T16:43:55;7.40;99.90
68387;DHT22;55338;43.062;25.624;2023-02-28T16:46:30;7.40;99.90
68387;DHT22;55338;43.062;25.624;2023-02-28T16:48:57;7.40;99.90
68387;DHT22;55338;43.062;25.624;2023-02-28T16:51:22;7.30;99.90
68387;DHT22;55338;43.062;25.624;2023-02-28T16:53:48;7.30;99.90
68387;DHT22;55338;43.062;25.624;2023-02-28T16:56:20;7.30;99.90
68387;DHT22;55338;43.062;25.624;2023-02-28T16:58:46;7.30;99.90
68387;DHT22;55338;43.062;25.624;2023-02-28T17:01:13;7.30;99.90
68387;DHT22;55338;43.062;25.624;2023-02-28T17:03:39;7.30;99.90
68387;DHT22;55338;43.062;25.624;2023-02-28T17:06:11;7.30;99.90
68387;DHT22;55338;43.062;25.624;2023-02-28T17:08:41;7.30;99.90
68387;DHT22;55338;43.062;25.624;2023-02-28T17:11:08;7.30;99.90
68387;DHT22;55338;43.062;25.624;2023-02-28T17:13:34;7.30;99.90
68387;DHT22;55338;43.062;25.624;2023-02-28T17:16:00;7.30;99.90
68387;DHT22;55338;43.062;25.624;2023-02-28T17:18:26;7.30;99.90
68387;DHT22;55338;43.062;25.624;2023-02-28T17:20:54;7.30;99.90
68387;DHT22;55338;43.062;25.624;2023-02-28T17:23:20;7.30;99.90
68387;DHT22;55338;43.062;25.624;2023-02-28T17:25:45;7.30;99.90
68387;DHT22;55338;43.062;25.624;2023-02-28T17:28:21;7.20;99.90
68387;DHT22;55338;43.062;25.624;2023-02-28T17:30:47;7.20;99.90
68387;DHT22;55338;43.062;25.624;2023-02-28T17:33:14;7.20;99.90
68387;DHT22;55338;43.062;25.624;2023-02-28T17:35:40;7.20;99.90
68387;DHT22;55338;43.062;25.624;2023-02-28T17:38:17;7.20;99.90
68387;DHT22;55338;43.062;25.624;2023-02-28T17:40:43;7.20;99.90
68387;DHT22;55338;43.062;25.624;2023-02-28T17:43:09;7.20;99.90
68387;DHT22;55338;43.062;25.624;2023-02-28T17:45:35;7.20;99.90
68387;DHT22;55338;43.062;25.624;2023-02-28T17:48:02;7.20;99.90
68387;DHT22;55338;43.062;25.624;2023-02-28T17:50:28;7.20;99.90
68387;DHT22;55338;43.062;25.624;2023-02-28T17:52:54;7.20;99.90
68387;DHT22;55338;43.062;25.624;2023-02-28T17:55:19;7.20;99.90
68387;DHT22;55338;43.062;25.624;2023-02-28T17:57:45;7.20;99.90
68387;DHT22;55338;43.062;25.624;2023-02-28T18:00:13;7.20;99.90
68387;DHT22;55338;43.062;25.624;2023-02-28T18:02:39;7.20;99.90
68387;DHT22;55338;43.062;25.624;2023-02-28T18:05:05;7.20;99.90
68387;DHT22;55338;43.062;25.624;2023-02-28T18:07:31;7.20;99.90
68387;DHT22;55338;43.062;25.624;2023-02-28T18:09:57;7.20;99.90
68387;DHT22;55338;43.062;25.624;2023-02-28T18:12:23;7.20;99.90
68387;DHT22;55338;43.062;25.624;2023-02-28T18:14:49;7.20;99.90
68387;DHT22;55338;43.062;25.624;2023-02-28T18:17:15;7.20;99.90
68387;DHT22;55338;43.062;25.624;2023-02-28T18:19:41;7.20;99.90
68387;DHT22;55338;43.062;25.624;2023-02-28T18:22:07;7.20;99.90
68387;DHT22;55338;43.062;25.624;2023-02-28T18:24:33;7.30;99.90
68387;DHT22;55338;43.062;25.624;2023-02-28T18:26:59;7.20;99.90
68387;DHT22;55338;43.062;25.624;2023-02-28T18:29:26;7.20;99.90